Time;durP1;ratioP1;P1;durP2;ratioP2;P2;SDS_P1;SDS_P2;PMS_P1;PMS_P2;Temp;Humidity;BMP_temperature;BMP_pressure;BME280_temperature;BME280_humidity;BME280_pressure;Samples;Min_cycle;Max_cycle;Signal;HPM_P1;HPM_P2
2021/12/18 00:01:54;;;;;;;201.88;53.40;;;;;;;;;;5072066;28;20274;-67
2021/12/18 00:04:22;;;;;;;204.25;50.22;;;;;;;;;;5072458;28;20254;-68
2021/12/18 00:06:49;;;;;;;183.20;48.22;;;;;;;;;;5072284;28;20208;-67
2021/12/18 00:09:17;;;;;;;177.10;47.10;;;;;;;;;;5072354;28;20329;-68
2021/12/18 00:11:45;;;;;;;195.48;56.95;;;;;;;;;;5072131;28;20209;-66
2021/12/18 00:14:13;;;;;;;220.85;69.85;;;;;;;;;;5071995;28;20209;-68
2021/12/18 00:16:42;;;;;;;177.18;50.63;;;;;;;;;;5071844;28;20315;-67
2021/12/18 00:19:09;;;;;;;178.52;48.58;;;;;;;;;;5071878;28;20217;-67
2021/12/18 00:21:37;;;;;;;175.35;46.92;;;;;;;;;;5072045;28;20212;-68
2021/12/18 00:24:05;;;;;;;197.35;52.70;;;;;;;;;;5071552;28;20205;-67
2021/12/18 00:26:32;;;;;;;211.30;53.15;;;;;;;;;;5071609;28;20216;-67
2021/12/18 00:29:00;;;;;;;203.23;50.55;;;;;;;;;;5071868;28;20230;-67
2021/12/18 00:31:27;;;;;;;205.77;50.20;;;;;;;;;;5071910;28;20707;-67
2021/12/18 00:33:56;;;;;;;223.65;56.22;;;;;;;;;;5064628;28;20696;-67
2021/12/18 00:36:23;;;;;;;214.95;51.00;;;;;;;;;;5071510;28;20240;-67
2021/12/18 00:38:51;;;;;;;210.30;51.35;;;;;;;;;;5073508;28;20223;-67
2021/12/18 00:41:35;;;;;;;197.48;49.00;;;;;;;;;;5071415;28;20236;-67
2021/12/18 00:44:04;;;;;;;213.25;54.38;;;;;;;;;;5071542;28;20204;-67
2021/12/18 00:46:32;;;;;;;191.55;47.72;;;;;;;;;;5071047;28;20219;-70
2021/12/18 00:49:01;;;;;;;191.80;48.75;;;;;;;;;;5071478;28;20212;-67
2021/12/18 00:51:29;;;;;;;191.23;47.63;;;;;;;;;;5071311;28;20204;-67
2021/12/18 00:53:57;;;;;;;225.80;56.20;;;;;;;;;;5071232;28;20695;-67
2021/12/18 00:56:24;;;;;;;175.27;47.17;;;;;;;;;;5071459;28;20328;-68
2021/12/18 00:58:52;;;;;;;153.77;45.63;;;;;;;;;;5071366;28;20311;-68
2021/12/18 01:01:20;;;;;;;207.18;54.72;;;;;;;;;;5071119;28;20580;-67
2021/12/18 01:03:49;;;;;;;148.20;46.13;;;;;;;;;;5071129;28;20213;-67
2021/12/18 01:06:19;;;;;;;179.73;50.42;;;;;;;;;;5071005;28;20204;-67
2021/12/18 01:08:46;;;;;;;168.35;46.72;;;;;;;;;;5071599;28;20212;-67
2021/12/18 01:11:31;;;;;;;185.93;48.50;;;;;;;;;;5071142;28;20209;-67
2021/12/18 01:14:15;;;;;;;196.70;53.95;;;;;;;;;;5071164;28;20287;-67
2021/12/18 01:16:51;;;;;;;188.60;49.83;;;;;;;;;;5064899;28;20239;-68
2021/12/18 01:24:49;;;;;;;151.40;44.47;;;;;;;;;;5070809;28;20594;-67
2021/12/18 01:27:17;;;;;;;144.57;43.65;;;;;;;;;;5070973;28;20219;-67
2021/12/18 01:29:44;;;;;;;137.00;42.15;;;;;;;;;;5070750;28;20658;-67
2021/12/18 01:32:12;;;;;;;129.60;41.50;;;;;;;;;;5070673;28;20246;-68
2021/12/18 01:34:39;;;;;;;168.02;46.80;;;;;;;;;;5070737;28;20232;-68
2021/12/18 01:37:08;;;;;;;183.32;47.75;;;;;;;;;;5064196;28;20240;-68
2021/12/18 01:39:36;;;;;;;174.70;47.95;;;;;;;;;;5070559;28;20204;-67
2021/12/18 01:42:29;;;;;;;183.88;52.47;;;;;;;;;;5070669;28;20204;-67
2021/12/18 01:45:05;;;;;;;193.90;49.10;;;;;;;;;;5065330;28;20212;-68
2021/12/18 01:53:04;;;;;;;245.00;55.22;;;;;;;;;;5070648;28;20261;-68
2021/12/18 01:55:33;;;;;;;240.63;53.97;;;;;;;;;;5070350;28;20328;-67
2021/12/18 01:58:00;;;;;;;245.68;57.85;;;;;;;;;;5070402;28;20291;-67
2021/12/18 02:00:31;;;;;;;196.95;50.17;;;;;;;;;;5070330;28;20208;-67
2021/12/18 02:02:58;;;;;;;235.93;54.55;;;;;;;;;;5070650;28;20661;-67
2021/12/18 02:05:26;;;;;;;213.80;51.25;;;;;;;;;;5070598;28;20727;-67
2021/12/18 02:07:53;;;;;;;225.27;53.00;;;;;;;;;;5070376;28;20630;-67
2021/12/18 02:10:25;;;;;;;236.75;53.70;;;;;;;;;;5070506;28;20287;-67
2021/12/18 02:12:59;;;;;;;247.13;54.83;;;;;;;;;;5070362;28;20710;-67
2021/12/18 02:20:59;;;;;;;220.38;52.30;;;;;;;;;;5066288;28;20299;-68
2021/12/18 02:23:27;;;;;;;221.55;51.92;;;;;;;;;;5070168;28;20215;-68
2021/12/18 02:25:54;;;;;;;231.60;57.03;;;;;;;;;;5072187;28;20240;-67
2021/12/18 02:28:25;;;;;;;234.88;53.63;;;;;;;;;;5070451;28;20717;-68
2021/12/18 02:30:54;;;;;;;239.30;53.50;;;;;;;;;;5063560;28;20576;-68
2021/12/18 02:33:22;;;;;;;246.23;56.00;;;;;;;;;;5070308;28;20228;-67
2021/12/18 02:35:52;;;;;;;224.38;53.72;;;;;;;;;;5071735;28;20242;-67
2021/12/18 02:38:23;;;;;;;214.48;51.78;;;;;;;;;;5073971;28;20687;-66
2021/12/18 02:41:00;;;;;;;222.30;54.15;;;;;;;;;;5073778;28;20677;-67
2021/12/18 02:43:28;;;;;;;250.27;55.63;;;;;;;;;;5073774;28;20212;-67
2021/12/18 02:45:59;;;;;;;257.27;60.08;;;;;;;;;;5073660;28;20209;-67
2021/12/18 02:48:27;;;;;;;249.07;55.22;;;;;;;;;;5073733;28;20212;-67
2021/12/18 02:50:55;;;;;;;249.90;54.80;;;;;;;;;;5073613;28;20215;-67
2021/12/18 02:53:24;;;;;;;260.50;55.47;;;;;;;;;;5073440;28;20298;-68
2021/12/18 02:55:56;;;;;;;250.18;57.95;;;;;;;;;;5073114;28;20232;-67
2021/12/18 02:58:24;;;;;;;257.33;54.45;;;;;;;;;;5073488;28;20661;-67
2021/12/18 03:00:52;;;;;;;265.92;57.22;;;;;;;;;;5073683;28;20244;-66
2021/12/18 03:03:20;;;;;;;253.48;54.42;;;;;;;;;;5066688;28;20204;-67
2021/12/18 03:05:58;;;;;;;264.48;59.38;;;;;;;;;;5073225;28;20594;-68
2021/12/18 03:08:39;;;;;;;246.98;54.47;;;;;;;;;;5073816;28;20210;-67
2021/12/18 03:24:59;;;;;;;240.50;53.30;;;;;;;;;;5057258;28;20216;-67
2021/12/18 03:27:28;;;;;;;146.88;44.55;;;;;;;;;;5073097;28;20204;-67
2021/12/18 03:29:56;;;;;;;212.60;54.95;;;;;;;;;;5072533;28;20209;-68
2021/12/18 03:32:24;;;;;;;222.35;52.25;;;;;;;;;;5072891;28;20287;-67
2021/12/18 03:34:51;;;;;;;211.05;52.83;;;;;;;;;;5072768;28;20201;-66
2021/12/18 03:37:19;;;;;;;238.77;56.47;;;;;;;;;;5072766;28;20228;-67
2021/12/18 03:39:47;;;;;;;207.80;52.25;;;;;;;;;;5072446;28;20209;-67
2021/12/18 03:42:16;;;;;;;194.15;50.60;;;;;;;;;;5072664;28;20200;-67
2021/12/18 03:44:44;;;;;;;252.32;59.70;;;;;;;;;;5072865;28;20205;-67
2021/12/18 03:47:11;;;;;;;243.48;56.78;;;;;;;;;;5072174;28;20213;-67
2021/12/18 03:49:38;;;;;;;237.95;55.25;;;;;;;;;;5072461;28;20253;-67
2021/12/18 03:52:06;;;;;;;253.02;55.60;;;;;;;;;;5072455;28;20683;-67
2021/12/18 03:54:34;;;;;;;248.90;55.53;;;;;;;;;;5065609;28;20252;-67
2021/12/18 03:57:01;;;;;;;250.38;57.13;;;;;;;;;;5072432;28;20263;-67
2021/12/18 03:59:30;;;;;;;248.77;55.40;;;;;;;;;;5072959;28;20243;-66
2021/12/18 04:01:58;;;;;;;258.52;59.60;;;;;;;;;;5072316;28;20215;-67
2021/12/18 04:04:26;;;;;;;243.77;54.28;;;;;;;;;;5072569;28;20208;-67
2021/12/18 04:06:53;;;;;;;256.50;56.45;;;;;;;;;;5072311;28;20212;-67
2021/12/18 04:09:21;;;;;;;206.63;56.88;;;;;;;;;;5072272;28;20248;-67
2021/12/18 04:11:48;;;;;;;131.52;44.25;;;;;;;;;;5072123;28;20208;-67
2021/12/18 04:14:17;;;;;;;215.32;53.25;;;;;;;;;;5072236;28;20211;-67
2021/12/18 04:16:46;;;;;;;248.77;56.60;;;;;;;;;;5071908;28;20640;-68
2021/12/18 04:19:14;;;;;;;186.70;50.15;;;;;;;;;;5071961;28;20204;-67
2021/12/18 04:21:41;;;;;;;246.18;59.13;;;;;;;;;;5071945;28;20217;-66
2021/12/18 04:24:09;;;;;;;213.45;53.65;;;;;;;;;;5071656;28;20239;-67
2021/12/18 04:26:36;;;;;;;232.70;56.60;;;;;;;;;;5072375;28;20255;-67
2021/12/18 04:29:05;;;;;;;178.52;51.40;;;;;;;;;;5072037;28;20311;-67
2021/12/18 04:31:34;;;;;;;236.65;56.85;;;;;;;;;;5071820;28;20218;-67
2021/12/18 04:34:03;;;;;;;230.95;57.60;;;;;;;;;;5071577;28;20231;-67
2021/12/18 04:36:30;;;;;;;227.77;52.72;;;;;;;;;;5071180;28;20266;-67
2021/12/18 04:38:58;;;;;;;217.77;50.53;;;;;;;;;;5071578;28;20209;-67
2021/12/18 04:41:37;;;;;;;224.18;52.17;;;;;;;;;;5071676;28;20232;-67
2021/12/18 04:44:04;;;;;;;230.10;53.42;;;;;;;;;;5071269;28;20216;-67
2021/12/18 04:46:32;;;;;;;208.57;50.72;;;;;;;;;;5071675;28;20318;-70
2021/12/18 04:48:59;;;;;;;156.15;44.78;;;;;;;;;;5071424;28;20211;-67
2021/12/18 04:51:28;;;;;;;173.70;46.25;;;;;;;;;;5071415;28;20639;-67
2021/12/18 04:53:56;;;;;;;159.98;47.10;;;;;;;;;;5070926;28;20228;-67
2021/12/18 04:56:23;;;;;;;196.75;51.63;;;;;;;;;;5071377;28;20302;-68
2021/12/18 04:58:51;;;;;;;203.68;51.30;;;;;;;;;;5070468;28;20669;-67
2021/12/18 05:01:18;;;;;;;200.50;51.35;;;;;;;;;;5071218;28;20203;-67
2021/12/18 05:03:46;;;;;;;141.38;44.15;;;;;;;;;;5070880;28;20207;-68
2021/12/18 05:06:13;;;;;;;175.40;46.63;;;;;;;;;;5071079;28;20208;-67
2021/12/18 05:08:42;;;;;;;168.05;46.78;;;;;;;;;;5071423;28;20251;-67
2021/12/18 05:11:10;;;;;;;157.80;43.70;;;;;;;;;;5071148;28;20212;-67
2021/12/18 05:13:37;;;;;;;167.23;47.72;;;;;;;;;;5070995;28;20236;-69
2021/12/18 05:16:05;;;;;;;131.23;41.97;;;;;;;;;;5070561;28;20217;-67
2021/12/18 05:18:32;;;;;;;132.35;41.15;;;;;;;;;;5070688;28;20331;-69
2021/12/18 05:20:59;;;;;;;132.98;42.58;;;;;;;;;;5070924;28;20204;-67
2021/12/18 05:23:27;;;;;;;113.28;38.60;;;;;;;;;;5064147;28;20208;-67
2021/12/18 05:25:56;;;;;;;117.25;41.03;;;;;;;;;;5070620;28;20205;-67
2021/12/18 05:28:24;;;;;;;117.10;39.60;;;;;;;;;;5070799;28;20688;-68
2021/12/18 05:30:52;;;;;;;135.60;42.30;;;;;;;;;;5070608;28;20209;-67
2021/12/18 05:33:19;;;;;;;124.10;40.22;;;;;;;;;;5071295;28;20262;-66
2021/12/18 05:35:47;;;;;;;109.30;38.10;;;;;;;;;;5070272;28;20243;-67
2021/12/18 05:38:14;;;;;;;123.10;39.60;;;;;;;;;;5070731;28;20238;-67
2021/12/18 05:40:41;;;;;;;110.90;38.50;;;;;;;;;;5070824;28;20669;-68
2021/12/18 05:43:10;;;;;;;142.20;50.97;;;;;;;;;;5070672;28;20218;-69
2021/12/18 05:45:38;;;;;;;150.75;48.08;;;;;;;;;;5070552;28;20224;-67
2021/12/18 05:48:06;;;;;;;150.95;45.22;;;;;;;;;;5070311;28;20680;-67
2021/12/18 05:50:33;;;;;;;120.90;41.83;;;;;;;;;;5070686;28;20204;-67
2021/12/18 05:53:01;;;;;;;126.50;42.42;;;;;;;;;;5070556;28;20247;-67
2021/12/18 05:55:29;;;;;;;119.93;40.30;;;;;;;;;;5070641;28;20259;-67
2021/12/18 05:57:57;;;;;;;127.28;47.30;;;;;;;;;;5070087;28;20228;-67
2021/12/18 06:00:26;;;;;;;116.20;41.00;;;;;;;;;;5070456;28;20212;-67
2021/12/18 06:02:53;;;;;;;119.07;41.22;;;;;;;;;;5070469;28;20236;-67
2021/12/18 06:05:20;;;;;;;156.30;45.17;;;;;;;;;;5070614;28;20204;-67
2021/12/18 06:07:56;;;;;;;154.38;49.00;;;;;;;;;;5070356;28;20212;-67
2021/12/18 06:10:24;;;;;;;151.05;47.88;;;;;;;;;;5073782;28;20211;-67
2021/12/18 06:12:52;;;;;;;181.05;52.00;;;;;;;;;;5074618;28;20931;-66
2021/12/18 06:15:20;;;;;;;167.48;47.00;;;;;;;;;;5074633;28;20204;-67
2021/12/18 06:17:48;;;;;;;205.02;50.67;;;;;;;;;;5074037;28;20675;-67
2021/12/18 06:20:16;;;;;;;214.05;53.88;;;;;;;;;;5074307;28;20589;-67
2021/12/18 06:22:43;;;;;;;199.65;52.13;;;;;;;;;;5074453;28;20641;-66
2021/12/18 06:25:11;;;;;;;255.27;66.85;;;;;;;;;;5074076;28;20214;-67
2021/12/18 06:27:38;;;;;;;316.33;88.25;;;;;;;;;;5074389;28;20216;-67
2021/12/18 06:30:06;;;;;;;417.58;119.13;;;;;;;;;;5073732;28;20700;-67
2021/12/18 06:32:34;;;;;;;280.08;82.20;;;;;;;;;;5073937;28;20288;-68
2021/12/18 06:35:02;;;;;;;319.58;89.80;;;;;;;;;;5073715;28;20607;-67
2021/12/18 06:37:30;;;;;;;287.67;81.22;;;;;;;;;;5073782;28;20238;-67
2021/12/18 06:39:57;;;;;;;200.25;63.80;;;;;;;;;;5073655;28;20219;-69
2021/12/18 06:42:25;;;;;;;225.43;60.95;;;;;;;;;;5073915;28;20216;-67
2021/12/18 06:44:52;;;;;;;266.92;67.38;;;;;;;;;;5073750;28;20218;-68
2021/12/18 06:47:20;;;;;;;257.73;61.38;;;;;;;;;;5073928;28;20221;-67
2021/12/18 06:49:47;;;;;;;270.25;64.57;;;;;;;;;;5066635;28;20208;-67
2021/12/18 06:52:16;;;;;;;222.88;59.38;;;;;;;;;;5073978;28;20217;-67
2021/12/18 06:54:43;;;;;;;177.80;55.63;;;;;;;;;;5073982;28;20231;-68
2021/12/18 06:57:11;;;;;;;178.85;53.33;;;;;;;;;;5073738;28;20260;-67
2021/12/18 06:59:38;;;;;;;159.25;48.53;;;;;;;;;;5073533;28;20792;-67
2021/12/18 07:02:06;;;;;;;159.23;49.33;;;;;;;;;;5073341;28;20205;-67
2021/12/18 07:04:33;;;;;;;175.57;50.92;;;;;;;;;;5073320;28;20204;-67
2021/12/18 07:07:00;;;;;;;206.00;56.75;;;;;;;;;;5073434;28;20207;-68
2021/12/18 07:09:29;;;;;;;201.45;53.63;;;;;;;;;;5066867;28;20208;-67
2021/12/18 07:11:57;;;;;;;167.75;52.83;;;;;;;;;;5073024;28;20208;-68
2021/12/18 07:14:24;;;;;;;158.90;48.40;;;;;;;;;;5073252;28;20208;-67
2021/12/18 07:16:52;;;;;;;179.40;51.72;;;;;;;;;;5073060;28;20295;-67
2021/12/18 07:19:19;;;;;;;232.43;58.67;;;;;;;;;;5073169;28;20208;-67
2021/12/18 07:21:47;;;;;;;201.52;53.67;;;;;;;;;;5071965;28;20577;-67
2021/12/18 07:24:14;;;;;;;212.00;56.03;;;;;;;;;;5073239;28;20212;-67
2021/12/18 07:26:43;;;;;;;223.55;55.72;;;;;;;;;;5073129;28;20266;-67
2021/12/18 07:29:11;;;;;;;228.98;55.88;;;;;;;;;;5072954;28;20656;-67
2021/12/18 07:31:38;;;;;;;223.57;60.35;;;;;;;;;;5072954;28;20209;-67
2021/12/18 07:34:05;;;;;;;245.07;63.95;;;;;;;;;;5072602;28;20685;-67
2021/12/18 07:36:33;;;;;;;179.57;52.85;;;;;;;;;;5072950;28;20276;-68
2021/12/18 07:39:02;;;;;;;234.32;56.00;;;;;;;;;;5072708;28;20232;-67
2021/12/18 07:41:29;;;;;;;243.57;57.13;;;;;;;;;;5072744;28;20232;-67
2021/12/18 07:43:58;;;;;;;248.68;59.63;;;;;;;;;;5072333;28;20687;-67
2021/12/18 07:46:25;;;;;;;192.68;49.05;;;;;;;;;;5072653;28;20211;-66
2021/12/18 07:48:53;;;;;;;211.18;52.42;;;;;;;;;;5072994;28;20286;-69
2021/12/18 07:51:20;;;;;;;201.35;51.60;;;;;;;;;;5072652;28;20200;-67
2021/12/18 07:53:48;;;;;;;217.55;55.72;;;;;;;;;;5072276;28;20235;-68
2021/12/18 07:56:15;;;;;;;189.57;49.63;;;;;;;;;;5072452;28;20278;-67
2021/12/18 07:58:42;;;;;;;208.48;53.70;;;;;;;;;;5072352;28;20225;-67
2021/12/18 08:01:11;;;;;;;205.45;52.78;;;;;;;;;;5072278;28;20208;-67
2021/12/18 08:03:40;;;;;;;199.10;51.20;;;;;;;;;;5072259;28;20211;-67
2021/12/18 08:06:07;;;;;;;192.32;50.42;;;;;;;;;;5072243;28;20212;-69
2021/12/18 08:08:35;;;;;;;205.07;51.90;;;;;;;;;;5072175;28;20673;-67
2021/12/18 08:11:03;;;;;;;152.70;44.92;;;;;;;;;;5072268;28;20208;-68
2021/12/18 08:13:30;;;;;;;210.30;52.88;;;;;;;;;;5072177;28;20650;-67
2021/12/18 08:15:57;;;;;;;239.40;55.97;;;;;;;;;;5071888;28;20216;-68
2021/12/18 08:18:26;;;;;;;221.15;50.40;;;;;;;;;;5072311;28;20327;-66
2021/12/18 08:20:54;;;;;;;193.35;50.00;;;;;;;;;;5072090;28;20209;-67
2021/12/18 08:23:21;;;;;;;242.52;54.60;;;;;;;;;;5072240;28;20303;-67
2021/12/18 08:25:49;;;;;;;249.40;58.72;;;;;;;;;;5071589;28;20208;-67
2021/12/18 08:28:16;;;;;;;176.77;52.80;;;;;;;;;;5072066;28;20211;-67
2021/12/18 08:30:44;;;;;;;183.80;53.35;;;;;;;;;;5071974;28;20575;-68
2021/12/18 08:33:11;;;;;;;230.63;61.47;;;;;;;;;;5065012;28;20243;-67
2021/12/18 08:35:40;;;;;;;299.73;72.78;;;;;;;;;;5071762;28;20421;-67
2021/12/18 08:38:08;;;;;;;240.40;68.90;;;;;;;;;;5071428;28;20343;-69
2021/12/18 08:40:36;;;;;;;207.20;67.80;;;;;;;;;;5071819;28;20462;-68
2021/12/18 08:43:04;;;;;;;276.10;79.80;;;;;;;;;;5071445;28;20451;-67
2021/12/18 08:45:32;;;;;;;278.13;81.60;;;;;;;;;;5071394;28;20453;-67
2021/12/18 08:47:59;;;;;;;307.90;89.53;;;;;;;;;;5071324;28;20826;-68
2021/12/18 08:50:27;;;;;;;313.03;83.87;;;;;;;;;;5071373;28;20455;-69
2021/12/18 08:52:56;;;;;;;271.20;80.27;;;;;;;;;;5071374;28;20447;-68
2021/12/18 08:55:24;;;;;;;320.73;89.27;;;;;;;;;;5071273;28;20471;-67
2021/12/18 08:57:52;;;;;;;312.35;81.97;;;;;;;;;;5070921;28;20488;-67
2021/12/18 09:00:20;;;;;;;351.38;80.85;;;;;;;;;;5071379;28;20209;-68
2021/12/18 09:02:48;;;;;;;251.23;71.95;;;;;;;;;;5071405;28;20211;-67
2021/12/18 09:05:18;;;;;;;272.25;70.85;;;;;;;;;;5071148;28;20209;-67
2021/12/18 09:07:45;;;;;;;231.75;65.47;;;;;;;;;;5071036;28;20208;-71
2021/12/18 09:10:15;;;;;;;249.07;68.40;;;;;;;;;;5071264;28;20216;-69
2021/12/18 09:12:42;;;;;;;265.08;71.47;;;;;;;;;;5071167;28;20209;-66
2021/12/18 09:15:10;;;;;;;274.00;69.40;;;;;;;;;;5071144;28;20209;-67
2021/12/18 09:17:38;;;;;;;301.55;69.88;;;;;;;;;;5064183;28;20656;-68
2021/12/18 09:20:06;;;;;;;273.75;65.70;;;;;;;;;;5070709;28;20244;-66
2021/12/18 09:22:34;;;;;;;291.13;66.68;;;;;;;;;;5070929;28;20287;-67
2021/12/18 09:25:03;;;;;;;271.60;62.83;;;;;;;;;;5070904;28;20209;-67
2021/12/18 09:27:31;;;;;;;204.50;56.78;;;;;;;;;;5071319;28;20212;-67
2021/12/18 09:29:59;;;;;;;199.15;60.60;;;;;;;;;;5070675;28;20216;-67
2021/12/18 09:32:28;;;;;;;207.90;58.50;;;;;;;;;;5070587;28;20207;-67
2021/12/18 09:34:56;;;;;;;204.85;55.55;;;;;;;;;;5070763;28;20719;-67
2021/12/18 09:37:23;;;;;;;185.07;51.47;;;;;;;;;;5071064;28;20205;-67
2021/12/18 09:39:51;;;;;;;188.45;53.97;;;;;;;;;;5070303;28;20795;-66
2021/12/18 09:42:18;;;;;;;178.00;50.45;;;;;;;;;;5070743;28;20212;-68
2021/12/18 09:44:49;;;;;;;195.55;51.40;;;;;;;;;;5070464;28;20735;-68
2021/12/18 09:47:17;;;;;;;193.15;52.20;;;;;;;;;;5070709;28;20642;-67
2021/12/18 09:49:46;;;;;;;200.05;51.63;;;;;;;;;;5070585;28;20241;-75
2021/12/18 09:52:13;;;;;;;174.20;49.20;;;;;;;;;;5070491;28;20215;-67
2021/12/18 09:54:41;;;;;;;170.50;47.97;;;;;;;;;;5070459;28;20714;-67
2021/12/18 09:57:08;;;;;;;195.60;50.70;;;;;;;;;;5070669;28;20577;-67
2021/12/18 09:59:37;;;;;;;184.38;50.65;;;;;;;;;;5070406;28;20226;-66
2021/12/18 10:02:06;;;;;;;146.27;44.25;;;;;;;;;;5070434;28;20209;-67
2021/12/18 10:04:34;;;;;;;161.93;46.53;;;;;;;;;;5070633;28;20214;-68
2021/12/18 10:07:03;;;;;;;192.65;50.58;;;;;;;;;;5070465;28;20205;-67
2021/12/18 10:09:32;;;;;;;181.02;48.53;;;;;;;;;;5070680;28;20217;-66
2021/12/18 10:12:00;;;;;;;139.68;47.25;;;;;;;;;;5070144;28;20685;-67
2021/12/18 10:14:34;;;;;;;151.35;44.90;;;;;;;;;;5070951;28;20232;-66
2021/12/18 10:17:01;;;;;;;132.65;42.75;;;;;;;;;;5070419;28;20200;-68
2021/12/18 10:19:31;;;;;;;102.00;39.22;;;;;;;;;;5070386;28;20619;-66
2021/12/18 10:22:00;;;;;;;106.38;40.95;;;;;;;;;;5069969;28;20212;-66
2021/12/18 10:24:28;;;;;;;62.58;30.52;;;;;;;;;;5070414;28;20242;-66
2021/12/18 10:26:55;;;;;;;51.53;26.67;;;;;;;;;;5070491;28;20209;-67
2021/12/18 10:29:30;;;;;;;75.30;33.70;;;;;;;;;;5070165;28;20210;-67
2021/12/18 10:32:04;;;;;;;91.25;38.30;;;;;;;;;;5070103;28;20211;-67
2021/12/18 10:34:33;;;;;;;139.48;45.13;;;;;;;;;;5070270;28;20228;-67
2021/12/18 10:37:27;;;;;;;115.93;42.45;;;;;;;;;;5069929;28;20236;-67
2021/12/18 10:39:59;;;;;;;78.93;37.40;;;;;;;;;;5029004;28;20224;-67
2021/12/18 10:42:28;;;;;;;103.35;40.28;;;;;;;;;;5070268;28;20204;-67
2021/12/18 10:44:57;;;;;;;138.57;44.95;;;;;;;;;;5063885;28;20212;-67
2021/12/18 10:47:24;;;;;;;136.30;45.00;;;;;;;;;;5070060;28;20196;-66
2021/12/18 10:49:53;;;;;;;168.20;52.67;;;;;;;;;;5070091;28;20653;-67
2021/12/18 10:52:36;;;;;;;75.60;34.63;;;;;;;;;;5070180;28;20208;-67
2021/12/18 10:55:05;;;;;;;102.07;40.70;;;;;;;;;;5069935;28;20220;-68
2021/12/18 10:57:32;;;;;;;129.07;45.47;;;;;;;;;;5073046;28;20215;-71
2021/12/18 10:59:59;;;;;;;79.72;40.35;;;;;;;;;;5073130;28;20692;-67
2021/12/18 11:02:28;;;;;;;80.70;38.08;;;;;;;;;;5073689;28;20215;-67
2021/12/18 11:05:13;;;;;;;122.80;44.72;;;;;;;;;;5073761;28;20302;-67
2021/12/18 11:07:44;;;;;;;115.55;41.50;;;;;;;;;;5073695;28;20249;-67
2021/12/18 11:10:40;;;;;;;73.88;33.97;;;;;;;;;;5073353;28;20221;-67
2021/12/18 11:15:52;;;;;;;122.93;42.40;;;;;;;;;;5073080;28;20215;-67
2021/12/18 11:18:20;;;;;;;153.40;45.78;;;;;;;;;;5073139;28;20218;-68
2021/12/18 11:20:51;;;;;;;177.95;50.33;;;;;;;;;;5073190;28;20280;-67
2021/12/18 11:23:22;;;;;;;164.43;47.63;;;;;;;;;;5073322;28;20204;-67
2021/12/18 11:25:54;;;;;;;156.60;47.67;;;;;;;;;;5072906;28;20264;-67
2021/12/18 11:28:23;;;;;;;152.88;45.15;;;;;;;;;;5073124;28;20232;-66
2021/12/18 11:30:51;;;;;;;150.73;44.33;;;;;;;;;;5073066;28;20267;-72
2021/12/18 11:33:19;;;;;;;155.00;44.35;;;;;;;;;;5073014;28;20287;-67
2021/12/18 11:35:46;;;;;;;152.32;44.38;;;;;;;;;;5072514;28;20243;-67
2021/12/18 11:38:16;;;;;;;150.43;44.92;;;;;;;;;;5072653;28;20210;-67
2021/12/18 11:40:44;;;;;;;130.75;42.25;;;;;;;;;;5072702;28;20202;-68
2021/12/18 11:43:27;;;;;;;130.38;42.40;;;;;;;;;;5072732;28;20665;-67
2021/12/18 11:45:54;;;;;;;118.22;39.58;;;;;;;;;;5072720;28;20402;-68
2021/12/18 11:48:21;;;;;;;144.23;42.67;;;;;;;;;;5072821;28;20206;-67
2021/12/18 11:50:49;;;;;;;123.95;39.60;;;;;;;;;;5072605;28;20219;-69
2021/12/18 11:53:18;;;;;;;118.13;39.30;;;;;;;;;;5072792;28;20212;-67
2021/12/18 11:56:00;;;;;;;126.30;39.80;;;;;;;;;;5072327;28;20220;-68
2021/12/18 11:58:28;;;;;;;133.85;42.25;;;;;;;;;;5072406;28;20250;-67
2021/12/18 12:00:59;;;;;;;106.93;37.60;;;;;;;;;;5065893;28;20205;-67
2021/12/18 12:03:28;;;;;;;111.68;39.00;;;;;;;;;;5072557;28;20692;-67
2021/12/18 12:05:57;;;;;;;107.18;41.30;;;;;;;;;;5072129;28;20214;-68
2021/12/18 12:08:31;;;;;;;101.28;37.03;;;;;;;;;;5072077;28;20640;-67
2021/12/18 12:11:18;;;;;;;105.78;38.72;;;;;;;;;;5072159;28;20226;-68
2021/12/18 12:14:08;;;;;;;111.60;38.60;;;;;;;;;;5072196;28;20598;-68
2021/12/18 12:16:54;;;;;;;127.68;40.75;;;;;;;;;;5068352;28;20266;-67
2021/12/18 12:19:24;;;;;;;130.77;42.97;;;;;;;;;;5071936;28;20232;-67
2021/12/18 12:21:53;;;;;;;116.90;39.67;;;;;;;;;;5072504;28;20237;-67
2021/12/18 12:24:22;;;;;;;158.05;44.97;;;;;;;;;;5071983;28;20657;-68
2021/12/18 12:26:50;;;;;;;128.85;42.00;;;;;;;;;;5072026;28;20213;-67
2021/12/18 12:29:19;;;;;;;118.60;39.35;;;;;;;;;;5071917;28;20716;-67
2021/12/18 12:31:55;;;;;;;127.75;41.50;;;;;;;;;;5071532;28;20219;-67
2021/12/18 12:34:23;;;;;;;118.65;40.22;;;;;;;;;;5072285;28;20208;-67
2021/12/18 12:36:57;;;;;;;92.72;35.28;;;;;;;;;;5071801;28;20248;-67
2021/12/18 12:39:27;;;;;;;85.97;34.88;;;;;;;;;;5071635;28;20611;-67
2021/12/18 12:42:09;;;;;;;92.15;39.13;;;;;;;;;;5071413;28;20205;-67
2021/12/18 12:44:46;;;;;;;96.63;37.67;;;;;;;;;;5071861;28;20209;-67
2021/12/18 12:47:15;;;;;;;104.38;38.55;;;;;;;;;;5066182;28;20638;-68
2021/12/18 12:49:43;;;;;;;77.70;33.33;;;;;;;;;;5071723;28;20209;-67
2021/12/18 12:52:12;;;;;;;108.53;39.50;;;;;;;;;;5071451;28;20211;-68
2021/12/18 12:54:55;;;;;;;125.03;43.30;;;;;;;;;;5071133;28;20239;-68
2021/12/18 12:57:39;;;;;;;103.97;38.78;;;;;;;;;;5065009;28;20244;-68
2021/12/18 13:00:25;;;;;;;120.15;42.35;;;;;;;;;;5071259;28;20235;-67
2021/12/18 13:02:54;;;;;;;127.47;42.60;;;;;;;;;;5071176;28;20665;-67
2021/12/18 13:05:22;;;;;;;110.15;39.03;;;;;;;;;;5071390;28;20209;-67
2021/12/18 13:07:51;;;;;;;119.07;42.33;;;;;;;;;;5071129;28;20231;-67
2021/12/18 13:10:20;;;;;;;97.07;36.92;;;;;;;;;;5071083;28;20226;-68
2021/12/18 13:12:57;;;;;;;108.40;38.47;;;;;;;;;;5071224;28;20205;-67
2021/12/18 13:15:25;;;;;;;126.25;40.95;;;;;;;;;;5071225;28;20582;-67
2021/12/18 13:18:05;;;;;;;118.72;40.25;;;;;;;;;;5064427;28;20206;-67
2021/12/18 13:20:41;;;;;;;131.20;43.22;;;;;;;;;;5064943;28;20238;-67
2021/12/18 13:23:09;;;;;;;112.45;38.88;;;;;;;;;;5065545;28;20212;-67
2021/12/18 13:25:48;;;;;;;116.22;39.13;;;;;;;;;;5070951;28;20204;-67
2021/12/18 13:28:16;;;;;;;142.20;42.90;;;;;;;;;;5065403;28;20212;-67
2021/12/18 13:30:47;;;;;;;130.38;41.67;;;;;;;;;;5070900;28;20240;-69
2021/12/18 13:33:14;;;;;;;104.38;37.83;;;;;;;;;;5070817;28;20200;-68
2021/12/18 13:35:42;;;;;;;133.70;42.17;;;;;;;;;;5070829;28;20237;-67
2021/12/18 13:38:12;;;;;;;120.55;39.92;;;;;;;;;;5071394;28;20270;-68
2021/12/18 13:40:45;;;;;;;97.03;37.35;;;;;;;;;;5070664;28;20228;-67
2021/12/18 13:43:14;;;;;;;105.25;39.25;;;;;;;;;;5070642;28;20211;-67
2021/12/18 13:45:53;;;;;;;112.72;40.97;;;;;;;;;;5070859;28;20623;-66
2021/12/18 13:48:21;;;;;;;99.40;36.97;;;;;;;;;;5070761;28;20303;-67
2021/12/18 13:50:58;;;;;;;107.95;37.75;;;;;;;;;;5070491;28;20248;-68
2021/12/18 13:53:26;;;;;;;106.47;37.85;;;;;;;;;;5070843;28;20208;-67
2021/12/18 13:55:56;;;;;;;111.88;39.45;;;;;;;;;;5070519;28;20229;-68
2021/12/18 13:58:26;;;;;;;99.32;36.33;;;;;;;;;;5070479;28;20209;-70
2021/12/18 14:00:57;;;;;;;100.05;37.10;;;;;;;;;;5070480;28;20239;-68
2021/12/18 14:03:26;;;;;;;101.28;38.42;;;;;;;;;;5070563;28;20661;-67
2021/12/18 14:05:54;;;;;;;104.00;38.10;;;;;;;;;;5070527;28;20239;-68
2021/12/18 14:08:22;;;;;;;118.72;40.13;;;;;;;;;;5070597;28;20212;-70
2021/12/18 14:10:50;;;;;;;95.60;37.22;;;;;;;;;;5070637;28;20227;-67
2021/12/18 14:13:18;;;;;;;105.80;39.72;;;;;;;;;;5070475;28;20228;-67
2021/12/18 14:15:46;;;;;;;101.72;39.28;;;;;;;;;;5070216;28;20333;-71
2021/12/18 14:18:30;;;;;;;99.22;37.50;;;;;;;;;;5070561;28;20218;-68
2021/12/18 14:20:58;;;;;;;100.75;36.97;;;;;;;;;;5070256;28;20728;-67
2021/12/18 14:23:30;;;;;;;113.78;36.63;;;;;;;;;;5070512;28;20304;-67
2021/12/18 14:26:11;;;;;;;113.50;42.08;;;;;;;;;;5070205;28;20215;-68
2021/12/18 14:28:39;;;;;;;99.45;35.90;;;;;;;;;;5070515;28;20577;-67
2021/12/18 14:31:21;;;;;;;102.32;36.03;;;;;;;;;;5072912;28;20204;-67
2021/12/18 14:33:54;;;;;;;107.90;40.63;;;;;;;;;;5073790;28;20650;-67
2021/12/18 14:36:36;;;;;;;117.25;38.72;;;;;;;;;;5074356;28;20260;-67
2021/12/18 14:39:03;;;;;;;108.22;38.30;;;;;;;;;;5067307;28;20224;-70
2021/12/18 14:41:32;;;;;;;111.63;38.80;;;;;;;;;;5074026;28;20224;-67
2021/12/18 14:44:00;;;;;;;128.95;45.40;;;;;;;;;;5073918;28;20663;-68
2021/12/18 14:46:27;;;;;;;85.55;34.40;;;;;;;;;;5073719;28;20208;-66
2021/12/18 14:48:56;;;;;;;94.03;35.90;;;;;;;;;;5073704;28;20696;-67
2021/12/18 14:51:27;;;;;;;103.22;37.25;;;;;;;;;;5073674;28;20691;-68
2021/12/18 14:54:01;;;;;;;109.35;42.13;;;;;;;;;;5073258;28;20232;-67